Time;durP1;ratioP1;P1;durP2;ratioP2;P2;SDS_P1;SDS_P2;PMS_P1;PMS_P2;Temp;Humidity;BMP_temperature;BMP_pressure;BME280_temperature;BME280_humidity;BME280_pressure;Samples;Min_cycle;Max_cycle;Signal;HPM_P1;HPM_P2
2021/10/01 00:00:49;;;;;;;1.70;1.60;;;12.00;92.30;;;;;;5010509;28;20209;-73
2021/10/01 00:03:39;;;;;;;1.33;1.33;;;12.00;92.20;;;;;;5020417;28;20307;-73
2021/10/01 00:06:05;;;;;;;2.85;2.13;;;12.00;91.90;;;;;;5015493;28;20177;-73
2021/10/01 00:08:32;;;;;;;1.70;1.60;;;12.00;92.10;;;;;;5018253;28;20193;-73
2021/10/01 00:10:58;;;;;;;1.42;1.42;;;12.10;91.80;;;;;;5020045;28;20186;-73
2021/10/01 00:13:26;;;;;;;4.55;1.88;;;12.10;91.80;;;;;;5012908;28;20763;-72
2021/10/01 00:15:52;;;;;;;2.13;1.90;;;12.10;91.80;;;;;;5017179;28;20767;-73
2021/10/01 00:18:18;;;;;;;1.77;1.67;;;12.10;91.80;;;;;;5017079;28;20671;-73
2021/10/01 00:20:43;;;;;;;1.88;1.70;;;12.00;91.90;;;;;;5011585;28;20262;-73
2021/10/01 00:23:11;;;;;;;1.70;1.60;;;12.00;91.90;;;;;;5014148;28;20187;-73
2021/10/01 00:25:38;;;;;;;2.75;1.83;;;12.00;91.90;;;;;;5017256;28;20210;-73
2021/10/01 00:28:04;;;;;;;2.03;1.92;;;12.00;91.90;;;;;;5016368;28;20180;-73
2021/10/01 00:30:30;;;;;;;1.60;1.60;;;11.90;92.00;;;;;;5013275;28;20264;-73
2021/10/01 00:32:58;;;;;;;3.63;1.92;;;11.90;92.20;;;;;;5016009;28;20184;-73
2021/10/01 00:35:24;;;;;;;5.47;1.70;;;11.80;92.30;;;;;;5016542;28;20230;-73
2021/10/01 00:37:50;;;;;;;3.30;2.28;;;11.70;92.50;;;;;;5013152;28;20208;-73
2021/10/01 00:40:15;;;;;;;1.77;1.67;;;11.70;92.70;;;;;;5019638;28;20705;-74
2021/10/01 00:42:41;;;;;;;1.48;1.48;;;11.60;92.80;;;;;;5015068;28;20717;-73
2021/10/01 00:45:07;;;;;;;1.55;1.55;;;11.60;92.80;;;;;;5016920;28;20667;-73
2021/10/01 00:47:33;;;;;;;1.80;1.70;;;11.50;93.00;;;;;;5009864;28;20732;-72
2021/10/01 00:49:59;;;;;;;1.85;1.70;;;11.50;93.20;;;;;;5017009;28;20186;-74
2021/10/01 00:52:25;;;;;;;1.80;1.70;;;11.40;93.20;;;;;;5013718;28;20784;-73
2021/10/01 00:54:52;;;;;;;1.75;1.65;;;11.40;93.40;;;;;;5015728;28;20204;-73
2021/10/01 00:57:19;;;;;;;1.65;1.55;;;11.40;93.70;;;;;;5009795;28;20258;-72
2021/10/01 00:59:45;;;;;;;2.22;1.65;;;11.30;93.80;;;;;;5015398;28;20302;-72
2021/10/01 01:02:10;;;;;;;1.30;1.30;;;11.30;93.90;;;;;;5016826;28;20308;-73
2021/10/01 01:04:43;;;;;;;1.92;1.83;;;11.20;94.00;;;;;;5017074;28;20196;-73
2021/10/01 01:07:51;;;;;;;1.92;1.77;;;11.20;94.40;;;;;;5016254;28;20686;-73
2021/10/01 01:10:31;;;;;;;1.58;1.58;;;11.20;93.90;;;;;;5023750;28;20879;-73
2021/10/01 01:13:11;;;;;;;1.40;1.30;;;11.20;94.30;;;;;;5022063;28;20638;-73
2021/10/01 01:15:44;;;;;;;2.65;1.42;;;11.20;94.30;;;;;;5024064;28;20203;-73
2021/10/01 01:18:19;;;;;;;1.60;1.50;;;11.20;94.30;;;;;;5023137;28;20275;-73
2021/10/01 01:20:50;;;;;;;2.00;1.67;;;11.10;94.10;;;;;;5005824;28;20227;-73
2021/10/01 01:23:46;;;;;;;1.40;1.30;;;11.10;94.40;;;;;;5022824;28;20279;-72
2021/10/01 01:26:49;;;;;;;1.77;1.67;;;11.10;94.40;;;;;;5023818;28;20192;-73
2021/10/01 01:29:38;;;;;;;1.50;1.40;;;11.10;94.50;;;;;;5022004;28;20187;-72
2021/10/01 01:32:21;;;;;;;1.38;1.27;;;11.10;94.60;;;;;;5023782;28;20184;-72
2021/10/01 01:34:55;;;;;;;1.27;1.27;;;11.10;94.80;;;;;;5021458;28;20307;-72
2021/10/01 01:37:39;;;;;;;1.60;1.50;;;11.10;94.90;;;;;;5023201;28;20184;-73
2021/10/01 01:40:06;;;;;;;1.10;1.10;;;11.10;95.20;;;;;;5025345;28;20228;-74
2021/10/01 01:42:33;;;;;;;4.47;1.75;;;11.10;95.10;;;;;;5025044;28;20185;-73
2021/10/01 01:45:00;;;;;;;1.85;1.58;;;11.10;95.30;;;;;;5027368;28;20202;-72
2021/10/01 01:47:27;;;;;;;2.92;1.52;;;11.10;95.30;;;;;;5019348;28;20212;-73
2021/10/01 01:49:53;;;;;;;1.20;1.20;;;11.10;95.40;;;;;;5017001;28;20181;-73
2021/10/01 01:52:20;;;;;;;1.60;1.60;;;11.10;95.40;;;;;;5020830;28;20177;-72
2021/10/01 01:54:47;;;;;;;1.40;1.40;;;11.10;95.40;;;;;;5019006;28;20177;-73
2021/10/01 01:57:14;;;;;;;3.47;1.48;;;11.20;95.30;;;;;;5021092;28;20183;-72
2021/10/01 01:59:41;;;;;;;1.92;1.73;;;11.20;95.40;;;;;;5017508;28;20241;-73
2021/10/01 02:02:08;;;;;;;1.42;1.42;;;11.30;95.30;;;;;;5012868;28;20650;-74
2021/10/01 02:04:35;;;;;;;1.50;1.40;;;11.30;95.30;;;;;;5017541;28;20185;-74
2021/10/01 02:07:03;;;;;;;1.30;1.30;;;11.40;95.00;;;;;;5012337;28;20177;-74
2021/10/01 02:09:31;;;;;;;1.80;1.70;;;11.40;95.00;;;;;;5019360;28;20191;-74
2021/10/01 02:11:57;;;;;;;5.00;1.77;;;11.50;94.90;;;;;;5017505;28;20200;-74
2021/10/01 02:14:27;;;;;;;1.35;1.35;;;11.50;94.90;;;;;;5017475;28;20184;-74
2021/10/01 02:16:55;;;;;;;2.03;1.92;;;11.60;94.80;;;;;;5018539;28;20217;-73
2021/10/01 02:19:24;;;;;;;1.75;1.65;;;11.60;94.70;;;;;;5017032;28;20192;-74
2021/10/01 02:21:51;;;;;;;2.70;1.25;;;11.70;94.60;;;;;;5015225;28;20180;-74
2021/10/01 02:24:18;;;;;;;1.17;1.17;;;11.70;94.50;;;;;;5017740;28;20766;-74
2021/10/01 02:26:50;;;;;;;1.65;1.65;;;11.70;94.40;;;;;;5018221;28;20194;-73
2021/10/01 02:29:25;;;;;;;1.73;1.63;;;11.80;94.30;;;;;;5012719;28;20181;-74
2021/10/01 02:32:10;;;;;;;2.80;1.73;;;11.80;94.20;;;;;;5012124;28;20186;-74
2021/10/01 02:34:45;;;;;;;2.47;1.30;;;11.80;94.20;;;;;;5017300;28;20189;-74
2021/10/01 02:37:12;;;;;;;3.67;1.80;;;11.90;93.90;;;;;;5011428;28;20673;-73
2021/10/01 02:39:41;;;;;;;1.88;1.60;;;11.90;94.00;;;;;;5014940;28;20208;-74
2021/10/01 02:42:09;;;;;;;1.40;1.40;;;11.90;93.90;;;;;;5015252;28;20178;-74
2021/10/01 02:44:40;;;;;;;1.38;1.27;;;11.90;93.90;;;;;;5013811;28;20173;-74
2021/10/01 02:47:06;;;;;;;1.85;1.73;;;11.90;94.00;;;;;;5019256;28;20238;-73
2021/10/01 02:49:32;;;;;;;1.23;1.23;;;12.00;93.90;;;;;;5016095;28;20184;-73
2021/10/01 02:52:07;;;;;;;1.38;1.38;;;12.00;94.10;;;;;;5016209;28;21013;-74
2021/10/01 02:54:38;;;;;;;1.38;1.25;;;12.00;93.90;;;;;;5018408;28;20187;-74
2021/10/01 02:57:18;;;;;;;1.55;1.55;;;12.00;93.90;;;;;;5013788;28;20177;-72
2021/10/01 02:59:46;;;;;;;1.35;1.35;;;12.00;93.60;;;;;;5017220;28;20331;-73
2021/10/01 03:02:14;;;;;;;1.60;1.60;;;12.00;93.80;;;;;;5014837;28;20196;-73
2021/10/01 03:04:44;;;;;;;1.35;1.25;;;12.00;93.80;;;;;;5017419;28;20181;-73
2021/10/01 03:07:11;;;;;;;1.52;1.52;;;12.00;93.70;;;;;;5017212;28;20184;-74
2021/10/01 03:09:38;;;;;;;0.95;0.95;;;12.10;93.70;;;;;;5010553;28;20283;-74
2021/10/01 03:12:06;;;;;;;2.65;1.27;;;12.10;93.70;;;;;;5014926;28;20228;-74
2021/10/01 03:14:32;;;;;;;1.60;1.60;;;12.10;93.70;;;;;;5013054;28;20238;-73
2021/10/01 03:16:59;;;;;;;1.55;1.48;;;12.10;93.60;;;;;;5011587;28;20275;-74
2021/10/01 03:19:25;;;;;;;1.40;1.30;;;12.10;93.60;;;;;;5014554;28;20177;-73
2021/10/01 03:21:56;;;;;;;1.60;1.50;;;12.10;93.60;;;;;;5016121;28;20187;-73
2021/10/01 03:24:22;;;;;;;0.95;0.95;;;12.10;93.50;;;;;;5013570;28;20173;-74
2021/10/01 03:26:51;;;;;;;1.70;1.63;;;12.10;93.50;;;;;;5014694;28;20185;-74
2021/10/01 03:29:17;;;;;;;2.03;1.30;;;12.10;93.40;;;;;;5017770;28;20181;-74
2021/10/01 03:31:45;;;;;;;1.10;1.08;;;12.10;93.50;;;;;;5012999;28;20181;-74
2021/10/01 03:34:12;;;;;;;1.38;1.38;;;12.10;93.30;;;;;;5018548;28;20601;-73
2021/10/01 03:36:38;;;;;;;1.42;1.33;;;12.20;93.40;;;;;;5013065;28;20192;-74
2021/10/01 03:39:04;;;;;;;1.85;1.17;;;12.20;93.40;;;;;;5019587;28;20184;-74
2021/10/01 03:41:29;;;;;;;1.85;1.02;;;12.20;93.40;;;;;;5014171;28;20216;-75
2021/10/01 03:43:56;;;;;;;1.65;1.25;;;12.20;93.30;;;;;;5016578;28;20694;-74
2021/10/01 03:46:23;;;;;;;1.10;1.10;;;12.20;93.30;;;;;;5018013;28;20884;-74
2021/10/01 03:48:49;;;;;;;1.33;1.33;;;12.20;93.30;;;;;;5012885;28;20181;-74
2021/10/01 03:51:15;;;;;;;3.30;1.70;;;12.20;93.40;;;;;;5012566;28;20210;-73
2021/10/01 03:53:41;;;;;;;0.98;0.98;;;12.20;93.30;;;;;;5019910;28;20188;-73
2021/10/01 03:56:15;;;;;;;1.75;1.35;;;12.20;93.30;;;;;;5014315;28;20192;-73
2021/10/01 03:58:40;;;;;;;1.38;1.38;;;12.30;93.30;;;;;;5013729;28;21999;-74
2021/10/01 04:01:06;;;;;;;1.42;1.42;;;12.30;93.30;;;;;;5013998;28;20217;-73
2021/10/01 04:03:32;;;;;;;1.17;1.17;;;12.30;93.20;;;;;;5015617;28;20176;-74
2021/10/01 04:05:57;;;;;;;1.17;1.13;;;12.20;93.30;;;;;;5011474;28;20191;-73
2021/10/01 04:08:23;;;;;;;1.50;1.42;;;12.30;93.20;;;;;;5010400;28;20276;-74
2021/10/01 04:10:49;;;;;;;1.13;1.02;;;12.30;93.30;;;;;;5010980;28;20188;-73
2021/10/01 04:13:15;;;;;;;1.52;1.52;;;12.30;93.10;;;;;;5015546;28;20674;-74
2021/10/01 04:15:40;;;;;;;1.40;1.30;;;12.30;93.00;;;;;;5015184;28;20628;-74
2021/10/01 04:18:06;;;;;;;2.97;1.67;;;12.30;93.10;;;;;;5016065;28;20238;-74
2021/10/01 04:20:34;;;;;;;6.47;0.90;;;12.30;93.20;;;;;;5017477;28;20227;-74
2021/10/01 04:23:00;;;;;;;1.23;1.23;;;12.30;93.20;;;;;;5014435;28;20214;-70
2021/10/01 04:25:26;;;;;;;1.55;1.45;;;12.30;93.20;;;;;;5012727;28;20742;-71
2021/10/01 04:27:52;;;;;;;2.58;1.15;;;12.30;93.20;;;;;;5019002;28;20195;-71
2021/10/01 04:30:17;;;;;;;3.45;1.60;;;12.30;93.20;;;;;;5010605;28;20660;-71
2021/10/01 04:32:47;;;;;;;1.92;1.33;;;12.30;93.20;;;;;;5012897;28;20176;-71
2021/10/01 04:35:12;;;;;;;1.58;1.48;;;12.30;93.20;;;;;;5007825;28;20180;-71
2021/10/01 04:37:38;;;;;;;1.55;1.45;;;12.30;93.20;;;;;;5012029;28;20272;-73
2021/10/01 04:40:04;;;;;;;3.05;1.63;;;12.30;93.30;;;;;;5011290;28;20212;-73
2021/10/01 04:42:30;;;;;;;1.83;1.63;;;12.20;93.40;;;;;;5014152;28;20180;-72
2021/10/01 04:44:56;;;;;;;2.05;1.15;;;12.30;93.20;;;;;;5007658;28;20191;-72
2021/10/01 04:47:21;;;;;;;1.52;1.38;;;12.30;93.20;;;;;;5012857;28;20239;-74
2021/10/01 04:49:47;;;;;;;3.03;1.58;;;12.30;93.20;;;;;;5004825;28;20191;-73
2021/10/01 04:52:13;;;;;;;1.38;1.10;;;12.30;93.20;;;;;;5012026;28;20228;-73
2021/10/01 04:54:39;;;;;;;1.48;1.48;;;12.30;93.20;;;;;;5007165;28;20200;-73
2021/10/01 04:57:05;;;;;;;2.28;1.95;;;12.30;93.20;;;;;;5013468;28;20698;-73
2021/10/01 04:59:30;;;;;;;1.55;1.45;;;12.40;93.10;;;;;;5007742;28;20243;-72
2021/10/01 05:01:56;;;;;;;1.52;1.52;;;12.40;93.10;;;;;;5006819;28;20208;-73
2021/10/01 05:04:24;;;;;;;4.35;1.92;;;12.40;93.00;;;;;;5002610;28;20282;-71
2021/10/01 05:06:50;;;;;;;1.38;1.27;;;12.40;93.00;;;;;;5010974;28;20176;-75
2021/10/01 05:09:15;;;;;;;1.48;1.42;;;12.40;93.00;;;;;;5004348;28;20185;-73
2021/10/01 05:11:41;;;;;;;1.80;1.70;;;12.40;93.00;;;;;;5010880;28;20207;-73
2021/10/01 05:14:06;;;;;;;1.90;1.73;;;12.40;93.00;;;;;;5014346;28;21000;-73
2021/10/01 05:16:32;;;;;;;1.70;1.70;;;12.40;92.90;;;;;;5011953;28;20216;-73
2021/10/01 05:18:58;;;;;;;1.65;1.58;;;12.40;92.90;;;;;;5014516;28;20188;-73
2021/10/01 05:21:24;;;;;;;3.85;2.13;;;12.50;92.90;;;;;;5015356;28;20252;-73
2021/10/01 05:23:49;;;;;;;1.73;1.42;;;12.50;92.90;;;;;;5008276;28;20280;-72
2021/10/01 05:26:15;;;;;;;1.50;1.40;;;12.50;92.70;;;;;;5014929;28;20188;-73
2021/10/01 05:28:41;;;;;;;2.13;2.03;;;12.50;92.80;;;;;;5015915;28;20184;-74
2021/10/01 05:31:09;;;;;;;2.00;1.90;;;12.50;92.80;;;;;;5015150;28;20568;-74
2021/10/01 05:33:35;;;;;;;2.33;1.55;;;12.50;92.80;;;;;;5009823;28;20251;-74
2021/10/01 05:36:01;;;;;;;1.20;1.20;;;12.50;92.90;;;;;;5010558;28;20655;-73
2021/10/01 05:38:29;;;;;;;1.48;1.42;;;12.60;92.80;;;;;;5013064;28;20659;-74
2021/10/01 05:40:55;;;;;;;1.90;1.58;;;12.60;92.60;;;;;;5013428;28;20224;-74
2021/10/01 05:43:24;;;;;;;1.80;1.80;;;12.60;92.50;;;;;;5011816;28;20571;-74
2021/10/01 05:45:53;;;;;;;1.27;1.27;;;12.60;92.40;;;;;;5012063;28;20203;-73
2021/10/01 05:48:20;;;;;;;2.10;1.23;;;12.60;92.40;;;;;;5007880;28;20624;-72
2021/10/01 05:50:52;;;;;;;5.40;2.22;;;12.70;92.40;;;;;;5014194;28;20192;-74
2021/10/01 05:53:45;;;;;;;1.92;1.83;;;12.70;92.10;;;;;;5019578;28;20688;-73
2021/10/01 05:56:16;;;;;;;1.63;1.58;;;12.70;92.10;;;;;;5020146;28;20188;-73
2021/10/01 05:58:42;;;;;;;1.33;1.30;;;12.80;91.90;;;;;;5014850;28;20188;-74
2021/10/01 06:01:09;;;;;;;2.70;1.95;;;12.80;91.90;;;;;;5018362;28;21024;-72
2021/10/01 06:03:35;;;;;;;1.90;1.73;;;12.80;92.00;;;;;;5018095;28;20181;-72
2021/10/01 06:06:01;;;;;;;1.45;1.45;;;12.80;91.70;;;;;;5015890;28;20185;-74
2021/10/01 06:08:30;;;;;;;1.95;1.85;;;12.80;91.50;;;;;;5014317;28;20210;-73
2021/10/01 06:10:55;;;;;;;1.60;1.45;;;12.80;91.50;;;;;;5015479;28;20180;-73
2021/10/01 06:13:21;;;;;;;1.70;1.60;;;12.90;91.40;;;;;;5011732;28;20616;-73
2021/10/01 06:15:47;;;;;;;1.92;1.52;;;12.90;91.30;;;;;;5019440;28;20187;-74
2021/10/01 06:18:12;;;;;;;1.67;1.33;;;12.90;91.30;;;;;;5014053;28;20270;-71
2021/10/01 06:20:38;;;;;;;1.63;1.52;;;12.90;91.10;;;;;;5015988;28;20213;-74
2021/10/01 06:23:04;;;;;;;1.83;1.58;;;12.90;91.30;;;;;;5017120;28;20292;-72
2021/10/01 06:25:30;;;;;;;1.80;1.70;;;13.00;91.10;;;;;;5016193;28;20565;-73
2021/10/01 06:27:55;;;;;;;3.17;2.17;;;13.00;90.80;;;;;;5017097;28;20180;-72
2021/10/01 06:30:22;;;;;;;1.52;1.52;;;13.00;90.90;;;;;;5011471;28;20181;-73
2021/10/01 06:32:47;;;;;;;2.17;1.77;;;13.00;90.80;;;;;;5016933;28;20216;-73
2021/10/01 06:35:13;;;;;;;2.15;2.05;;;13.10;90.50;;;;;;5017604;28;20196;-72
2021/10/01 06:37:39;;;;;;;1.55;1.48;;;13.10;90.60;;;;;;5019693;28;20184;-73
2021/10/01 06:40:06;;;;;;;2.47;2.20;;;13.10;90.60;;;;;;5014600;28;20231;-72
2021/10/01 06:42:34;;;;;;;2.50;2.40;;;13.20;90.60;;;;;;5017609;28;20546;-73
2021/10/01 06:45:02;;;;;;;2.13;1.92;;;13.20;90.80;;;;;;5018907;28;20268;-72
2021/10/01 08:19:49;;;;;;;7.38;2.80;;;20.00;66.10;;;;;;5016904;28;20216;-73
2021/10/01 08:22:15;;;;;;;2.88;2.78;;;20.00;66.40;;;;;;5011214;28;20206;-71
2021/10/01 08:24:41;;;;;;;2.78;2.58;;;20.10;65.50;;;;;;5018856;28;20180;-72
2021/10/01 08:27:07;;;;;;;2.78;2.60;;;20.30;65.80;;;;;;5012827;28;20188;-73
2021/10/01 08:29:33;;;;;;;3.80;2.92;;;20.10;65.10;;;;;;5007478;28;20260;-73
2021/10/01 08:32:05;;;;;;;2.42;2.33;;;20.00;63.90;;;;;;5006959;28;20259;-72
2021/10/01 08:34:34;;;;;;;1.95;1.85;;;19.60;63.50;;;;;;5006563;28;20180;-71
2021/10/01 08:37:00;;;;;;;3.70;2.55;;;19.30;64.70;;;;;;5006284;28;20203;-72
2021/10/01 08:39:27;;;;;;;6.65;2.78;;;19.00;64.30;;;;;;5005436;28;20181;-73
2021/10/01 08:41:53;;;;;;;2.05;1.92;;;18.80;65.10;;;;;;5009524;28;20188;-73
2021/10/01 08:44:19;;;;;;;2.90;2.55;;;18.60;64.70;;;;;;5010156;28;20181;-73
2021/10/01 08:46:46;;;;;;;4.07;2.22;;;18.30;64.50;;;;;;5012325;28;20184;-73
2021/10/01 08:49:13;;;;;;;3.17;2.90;;;18.10;65.10;;;;;;5011710;28;20189;-73
2021/10/01 08:51:40;;;;;;;2.25;2.15;;;17.90;64.10;;;;;;5011451;28;20314;-73
2021/10/01 08:54:06;;;;;;;4.72;1.90;;;17.70;64.70;;;;;;5010668;28;20203;-72
2021/10/01 08:56:32;;;;;;;2.33;2.22;;;17.60;64.30;;;;;;5011058;28;20180;-73
2021/10/01 08:58:58;;;;;;;2.78;2.20;;;17.50;64.90;;;;;;5015774;28;20191;-72
2021/10/01 09:01:24;;;;;;;2.92;2.22;;;17.40;63.70;;;;;;5013179;28;20705;-72
2021/10/01 09:03:50;;;;;;;2.20;2.00;;;17.30;64.80;;;;;;5009746;28;20185;-72
2021/10/01 09:06:16;;;;;;;2.13;2.00;;;17.20;65.80;;;;;;5009735;28;20235;-72
2021/10/01 09:09:09;;;;;;;2.67;2.47;;;17.20;64.80;;;;;;5012221;28;20181;-73
2021/10/01 09:11:47;;;;;;;1.83;1.73;;;17.20;63.00;;;;;;5009040;28;20192;-72
2021/10/01 09:14:18;;;;;;;1.75;1.75;;;17.20;64.30;;;;;;5008735;28;20189;-73
2021/10/01 09:16:44;;;;;;;1.92;1.83;;;17.20;63.70;;;;;;5010177;28;20663;-73
2021/10/01 09:19:10;;;;;;;2.25;2.05;;;17.20;63.60;;;;;;5007745;28;20192;-71
2021/10/01 09:21:49;;;;;;;1.60;1.60;;;17.20;64.30;;;;;;5007871;28;20274;-72
2021/10/01 09:24:17;;;;;;;2.50;1.77;;;17.20;64.30;;;;;;5005010;28;20572;-71
2021/10/01 09:26:53;;;;;;;5.60;2.40;;;17.20;63.70;;;;;;5009089;28;20235;-73
2021/10/01 09:29:37;;;;;;;3.55;2.22;;;17.30;64.80;;;;;;5009988;28;20181;-71
2021/10/01 09:32:14;;;;;;;6.05;2.30;;;17.40;64.30;;;;;;5041512;28;20197;-73
2021/10/01 09:34:47;;;;;;;2.63;2.42;;;17.60;64.40;;;;;;5005995;28;20294;-73
2021/10/01 09:37:15;;;;;;;3.40;2.15;;;17.80;64.20;;;;;;5006223;28;20251;-72
2021/10/01 09:39:44;;;;;;;2.13;1.98;;;18.00;63.60;;;;;;5008873;28;20671;-73
2021/10/01 09:42:17;;;;;;;2.20;2.00;;;18.20;62.70;;;;;;5007220;28;20253;-72
2021/10/01 09:44:49;;;;;;;3.17;1.83;;;18.40;62.90;;;;;;4992901;28;20200;-71
2021/10/01 09:47:27;;;;;;;5.57;2.33;;;18.70;62.60;;;;;;5010210;28;20319;-71
2021/10/01 09:50:00;;;;;;;2.10;1.90;;;19.00;62.50;;;;;;5012902;28;20184;-71
2021/10/01 09:52:45;;;;;;;4.45;2.28;;;19.20;61.70;;;;;;5008704;28;20197;-71
2021/10/01 09:55:12;;;;;;;2.22;2.05;;;19.40;60.00;;;;;;5007360;28;20196;-71
2021/10/01 09:57:39;;;;;;;2.70;2.25;;;19.40;60.80;;;;;;5007902;28;20197;-71
2021/10/01 10:00:27;;;;;;;2.08;2.05;;;19.50;60.50;;;;;;5013060;28;20223;-72
2021/10/01 10:02:53;;;;;;;2.10;2.00;;;19.50;60.80;;;;;;5011532;28;20624;-72
2021/10/01 10:05:19;;;;;;;2.47;2.38;;;19.50;61.10;;;;;;5008037;28;20189;-72
2021/10/01 10:07:47;;;;;;;2.67;2.53;;;19.50;60.40;;;;;;5012958;28;20188;-72
2021/10/01 10:10:13;;;;;;;2.53;2.42;;;19.30;61.00;;;;;;5011934;28;20686;-74
2021/10/01 10:12:44;;;;;;;2.38;2.28;;;19.30;60.80;;;;;;5009915;28;20206;-73
2021/10/01 10:15:17;;;;;;;4.05;2.97;;;19.30;61.30;;;;;;5011782;28;20203;-72
2021/10/01 10:17:50;;;;;;;2.67;2.05;;;19.40;61.10;;;;;;5012801;28;20268;-71
2021/10/01 10:20:19;;;;;;;2.58;2.47;;;19.60;61.10;;;;;;5012237;28;20242;-73
2021/10/01 10:22:45;;;;;;;5.03;1.88;;;19.90;60.40;;;;;;5011631;28;20184;-73
2021/10/01 10:25:11;;;;;;;3.80;1.83;;;20.30;59.60;;;;;;5011596;28;20276;-72
2021/10/01 10:27:37;;;;;;;4.40;2.60;;;20.80;60.20;;;;;;5011336;28;20303;-72
2021/10/01 10:30:05;;;;;;;2.28;2.10;;;21.10;59.60;;;;;;5013193;28;20190;-73
2021/10/01 10:32:31;;;;;;;4.15;2.38;;;21.60;60.20;;;;;;5017666;28;20813;-73
2021/10/01 10:35:00;;;;;;;2.35;2.00;;;22.10;57.70;;;;;;5011863;28;20188;-73
2021/10/01 10:37:55;;;;;;;1.55;1.55;;;22.40;57.60;;;;;;5013255;28;20185;-71
2021/10/01 10:40:20;;;;;;;2.47;2.38;;;22.70;56.00;;;;;;4994307;28;20225;-72
2021/10/01 10:42:48;;;;;;;2.28;2.20;;;22.40;54.00;;;;;;4985282;28;20213;-73
2021/10/01 10:45:23;;;;;;;2.50;2.40;;;21.80;54.60;;;;;;4986394;28;20241;-72
2021/10/01 10:47:52;;;;;;;3.53;2.60;;;21.60;57.00;;;;;;4992217;28;20180;-72
2021/10/01 10:50:37;;;;;;;6.18;2.30;;;21.60;58.70;;;;;;4995764;28;20205;-72
2021/10/01 10:53:09;;;;;;;2.42;2.33;;;21.90;58.60;;;;;;4997366;28;20185;-72
2021/10/01 10:55:42;;;;;;;2.47;2.38;;;22.20;58.30;;;;;;4996373;28;20189;-72
2021/10/01 10:58:29;;;;;;;2.47;2.38;;;22.20;56.20;;;;;;4996093;28;20755;-72
2021/10/01 11:01:02;;;;;;;4.80;2.85;;;22.10;55.90;;;;;;4964132;28;21031;-72
2021/10/01 11:03:33;;;;;;;2.83;2.67;;;22.10;58.50;;;;;;4979820;28;20198;-72
2021/10/01 11:06:14;;;;;;;6.40;2.55;;;22.10;57.80;;;;;;4963087;28;20215;-73
2021/10/01 11:08:43;;;;;;;2.03;2.03;;;21.90;56.60;;;;;;4964412;28;20278;-72
2021/10/01 11:11:28;;;;;;;2.20;2.20;;;21.70;56.10;;;;;;4962891;28;20316;-72
2021/10/01 11:14:17;;;;;;;2.13;2.05;;;21.70;56.70;;;;;;4963459;28;20197;-73
2021/10/01 11:17:11;;;;;;;2.88;2.67;;;21.60;57.20;;;;;;4977111;28;20225;-73
2021/10/01 11:19:46;;;;;;;2.92;2.80;;;21.40;56.60;;;;;;4986088;28;20331;-72
2021/10/01 11:22:39;;;;;;;2.38;2.33;;;21.20;57.70;;;;;;4987493;28;20233;-73
2021/10/01 11:25:17;;;;;;;5.28;2.80;;;20.80;58.40;;;;;;4982444;28;20365;-73
2021/10/01 11:28:00;;;;;;;2.40;2.20;;;20.70;59.80;;;;;;4986216;28;20579;-73
2021/10/01 11:30:27;;;;;;;4.30;2.45;;;20.80;58.30;;;;;;4987173;28;20192;-73
2021/10/01 11:32:56;;;;;;;2.55;2.40;;;21.00;58.10;;;;;;4992352;28;20780;-73
2021/10/01 11:35:22;;;;;;;3.00;2.80;;;21.10;59.90;;;;;;4986498;28;20196;-72
2021/10/01 11:37:50;;;;;;;3.75;2.78;;;21.40;59.20;;;;;;4980166;28;20201;-72
2021/10/01 11:40:27;;;;;;;4.75;3.35;;;21.50;56.80;;;;;;5007153;28;20249;-73
2021/10/01 11:42:56;;;;;;;2.83;2.63;;;21.20;56.80;;;;;;5009487;28;20238;-73
2021/10/01 11:45:33;;;;;;;2.88;2.78;;;21.10;56.50;;;;;;5011268;28;20611;-72
2021/10/01 11:48:02;;;;;;;2.53;2.33;;;20.90;58.30;;;;;;5008321;28;20218;-73
2021/10/01 11:50:30;;;;;;;3.35;2.53;;;21.00;58.70;;;;;;5010730;28;20249;-73
2021/10/01 11:52:58;;;;;;;3.10;2.60;;;21.20;60.10;;;;;;5011369;28;20181;-72
2021/10/01 11:55:33;;;;;;;2.58;2.47;;;21.30;57.70;;;;;;5009072;28;20676;-72
2021/10/01 11:57:59;;;;;;;3.55;3.03;;;21.30;58.10;;;;;;5009043;28;20277;-72
2021/10/01 12:00:25;;;;;;;3.88;2.78;;;21.40;57.10;;;;;;5010650;28;20308;-72
2021/10/01 12:02:53;;;;;;;3.63;3.03;;;21.50;57.30;;;;;;5010250;28;20267;-71
2021/10/01 12:05:32;;;;;;;2.80;2.70;;;21.60;58.10;;;;;;5007481;28;20238;-72
2021/10/01 12:08:06;;;;;;;3.78;3.00;;;21.60;56.40;;;;;;5013652;28;20211;-71
2021/10/01 12:10:44;;;;;;;2.88;2.72;;;21.40;58.60;;;;;;5014873;28;20653;-72
2021/10/01 12:13:16;;;;;;;3.55;3.30;;;21.30;58.00;;;;;;5007925;28;20196;-72
2021/10/01 12:16:04;;;;;;;2.70;2.60;;;21.10;59.00;;;;;;5007582;28;20203;-74
2021/10/01 12:18:57;;;;;;;2.95;2.85;;;21.00;58.60;;;;;;5013384;28;20176;-75
2021/10/01 12:21:25;;;;;;;2.78;2.58;;;21.00;58.90;;;;;;5010534;28;20225;-76
2021/10/01 12:24:04;;;;;;;3.03;2.92;;;20.90;58.10;;;;;;5013854;28;20185;-75
2021/10/01 12:26:31;;;;;;;2.78;2.58;;;20.80;57.70;;;;;;5015251;28;20582;-74
2021/10/01 12:29:15;;;;;;;2.85;2.65;;;20.60;58.50;;;;;;5011159;28;20188;-75
2021/10/01 12:31:44;;;;;;;3.60;3.30;;;20.40;59.80;;;;;;5011260;28;20189;-73
2021/10/01 12:34:22;;;;;;;2.55;2.55;;;20.30;61.20;;;;;;5012676;28;20560;-73
2021/10/01 12:36:51;;;;;;;2.90;2.80;;;20.40;58.90;;;;;;5013289;28;20189;-73
2021/10/01 12:39:17;;;;;;;3.53;2.97;;;20.50;59.50;;;;;;5015317;28;20242;-73
2021/10/01 12:41:43;;;;;;;2.88;2.78;;;20.50;59.00;;;;;;5009413;28;20270;-73
2021/10/01 12:44:14;;;;;;;3.63;3.15;;;20.70;59.20;;;;;;5006476;28;20828;-74
2021/10/01 12:46:48;;;;;;;2.70;2.50;;;21.20;59.60;;;;;;5006856;28;20540;-73
2021/10/01 12:49:30;;;;;;;6.88;2.83;;;21.90;59.50;;;;;;5009578;28;20188;-73
2021/10/01 12:51:59;;;;;;;4.72;2.92;;;22.40;56.60;;;;;;5008295;28;20184;-73
2021/10/01 12:54:31;;;;;;;2.67;2.67;;;22.60;55.00;;;;;;5010031;28;20185;-73
2021/10/01 12:57:08;;;;;;;6.63;3.30;;;22.70;56.80;;;;;;5014106;28;20208;-73
2021/10/01 12:59:48;;;;;;;2.80;2.60;;;22.60;54.40;;;;;;5011719;28;20184;-73
2021/10/01 13:02:40;;;;;;;3.28;3.17;;;22.30;56.40;;;;;;5006575;28;20189;-72
2021/10/01 13:05:15;;;;;;;3.08;2.97;;;22.10;55.60;;;;;;5009142;28;20181;-73
2021/10/01 13:07:44;;;;;;;3.78;3.45;;;21.90;58.80;;;;;;5007887;28;20184;-73
2021/10/01 13:10:13;;;;;;;3.85;3.50;;;22.20;58.50;;;;;;5012459;28;20693;-73
2021/10/01 13:12:58;;;;;;;6.07;2.72;;;22.40;56.50;;;;;;5010878;28;20192;-73
2021/10/01 13:15:46;;;;;;;2.90;2.70;;;22.20;54.30;;;;;;5013061;28;20686;-73
2021/10/01 13:18:27;;;;;;;3.15;2.95;;;22.00;55.80;;;;;;5009727;28;20189;-73
2021/10/01 13:21:02;;;;;;;2.83;2.72;;;22.20;55.50;;;;;;5011145;28;20876;-73
2021/10/01 13:23:48;;;;;;;3.20;3.00;;;21.90;54.60;;;;;;5010058;28;20267;-73
2021/10/01 13:26:25;;;;;;;2.70;2.60;;;21.70;55.80;;;;;;5007757;28;20191;-73
2021/10/01 13:29:05;;;;;;;3.20;3.10;;;21.30;55.50;;;;;;5009611;28;20189;-72
2021/10/01 13:31:38;;;;;;;3.03;2.88;;;21.20;56.70;;;;;;5007975;28;20189;-72
2021/10/01 13:34:04;;;;;;;3.10;2.80;;;21.30;58.20;;;;;;5015931;28;20184;-72
2021/10/01 13:36:31;;;;;;;4.90;2.25;;;21.60;57.80;;;;;;5014203;28;20177;-73
2021/10/01 13:38:58;;;;;;;6.65;2.75;;;21.90;56.10;;;;;;5012376;28;20210;-73
2021/10/01 13:41:25;;;;;;;3.03;2.92;;;22.30;55.30;;;;;;5014612;28;20240;-72
2021/10/01 13:43:51;;;;;;;2.78;2.58;;;22.40;56.40;;;;;;5020009;28;20176;-72
2021/10/01 13:46:20;;;;;;;3.15;2.47;;;22.50;57.40;;;;;;5015027;28;20828;-73
2021/10/01 13:48:47;;;;;;;2.85;2.75;;;22.90;56.30;;;;;;5013214;28;20203;-72
2021/10/01 13:51:13;;;;;;;2.45;1.92;;;23.10;55.30;;;;;;5015226;28;20193;-73
2021/10/01 13:53:39;;;;;;;3.10;2.90;;;23.50;55.90;;;;;;5017093;28;20909;-73
2021/10/01 13:56:05;;;;;;;4.72;2.78;;;24.10;53.30;;;;;;5019565;28;20181;-73
2021/10/01 13:58:31;;;;;;;3.30;2.78;;;24.50;53.90;;;;;;5015609;28;20678;-74
2021/10/01 14:00:58;;;;;;;2.45;2.35;;;24.60;52.30;;;;;;5012161;28;20229;-73
2021/10/01 14:03:24;;;;;;;2.60;2.50;;;24.60;53.80;;;;;;5014394;28;20184;-73
2021/10/01 14:05:51;;;;;;;2.85;2.60;;;24.80;51.70;;;;;;5021898;28;20564;-74
2021/10/01 14:08:18;;;;;;;2.80;2.10;;;25.10;54.30;;;;;;5014225;28;20230;-73
2021/10/01 14:10:44;;;;;;;2.35;2.25;;;25.40;53.50;;;;;;5021148;28;20259;-73
2021/10/01 14:13:11;;;;;;;2.60;2.25;;;25.40;53.70;;;;;;5021338;28;20629;-73
2021/10/01 14:15:39;;;;;;;4.13;2.08;;;25.40;53.60;;;;;;5018525;28;20695;-74
2021/10/01 14:18:05;;;;;;;2.45;2.35;;;25.50;53.70;;;;;;5022680;28;20181;-73
2021/10/01 14:20:36;;;;;;;2.55;2.35;;;25.80;52.50;;;;;;5015887;28;20269;-73
2021/10/01 14:23:02;;;;;;;2.22;2.00;;;25.80;52.40;;;;;;5016653;28;20216;-73
2021/10/01 14:25:28;;;;;;;2.30;2.20;;;25.90;53.60;;;;;;5014597;28;20714;-74
2021/10/01 14:27:58;;;;;;;2.15;2.15;;;25.90;53.30;;;;;;5019006;28;20177;-72
2021/10/01 14:30:29;;;;;;;2.85;2.75;;;26.00;53.00;;;;;;5015794;28;20224;-72
2021/10/01 14:32:56;;;;;;;3.33;2.67;;;25.90;53.10;;;;;;5016009;28;20233;-73
2021/10/01 14:35:23;;;;;;;2.85;2.65;;;25.20;52.20;;;;;;5015039;28;20204;-72